Terminal Aerodrome Forecast
Issued by NWS Bismarck, ND

Home | Current Version | Previous Version | Graphics & Text | Print | Product List | Glossary On
Versions: 1 2 3 4 5 6 7 8 9 10 11 12 13 14 15 16 17 18
000
FTUS43 KBIS 250425 AAC
TAFBIS
TAF AMD
KBIS 250425Z 2504/2524 06005KT P6SM VCTS SCT080CB OVC150
     FM250600 06006KT P6SM -SHRA VCTS SCT050 BKN080CB
     FM250900 07008KT P6SM BKN060
     FM251500 10007KT P6SM -SHRA VCTS BKN035CB=

USA.gov is the U.S. government's official web portal to all federal, state and local government web resources and services.